createdAt,value
2022-10-27T00:00:43.846Z,6.40
2022-10-27T00:03:15.457Z,6.50
2022-10-27T00:05:43.216Z,6.38
2022-10-27T00:08:13.938Z,6.57
2022-10-27T00:10:42.358Z,7.68
2022-10-27T00:13:09.338Z,7.90
2022-10-27T00:15:35.869Z,7.60
2022-10-27T00:18:10.956Z,8.73
2022-10-27T00:20:38.225Z,7.43
2022-10-27T00:23:05.227Z,8.27
2022-10-27T00:25:31.868Z,8.18
2022-10-27T00:27:58.806Z,8.02
2022-10-27T00:30:25.416Z,7.95
2022-10-27T00:32:54.272Z,7.22
2022-10-27T00:35:21.959Z,7.25
2022-10-27T00:37:49.177Z,7.93
2022-10-27T00:40:16.509Z,7.85
2022-10-27T00:42:43.525Z,7.07
2022-10-27T00:45:10.685Z,8.25
2022-10-27T00:47:38.918Z,7.60
2022-10-27T00:50:12.335Z,7.93
2022-10-27T00:53:13.134Z,8.60
2022-10-27T00:55:41.428Z,8.45
2022-10-27T00:58:12.146Z,8.45
2022-10-27T01:00:42.548Z,7.53
2022-10-27T01:03:12.821Z,8.15
2022-10-27T01:05:41.346Z,7.47
2022-10-27T01:08:07.890Z,8.48
2022-10-27T01:10:35.543Z,7.63
2022-10-27T01:13:02.415Z,8.88
2022-10-27T01:15:39.781Z,7.90
2022-10-27T01:18:32.362Z,8.38
2022-10-27T01:21:25.971Z,7.90
2022-10-27T01:24:10.388Z,8.55
2022-10-27T01:26:58.296Z,8.05
2022-10-27T01:29:42.919Z,9.15
2022-10-27T01:32:27.948Z,9.38
2022-10-27T01:35:12.662Z,10.45
2022-10-27T01:38:11.403Z,9.20
2022-10-27T01:40:47.485Z,10.70
2022-10-27T01:43:21.065Z,10.20
2022-10-27T01:45:48.659Z,9.68
2022-10-27T01:48:15.916Z,8.07
2022-10-27T01:51:00.738Z,8.40
2022-10-27T01:53:37.100Z,8.48
2022-10-27T01:56:32.060Z,8.35
2022-10-27T01:59:20.363Z,7.15
2022-10-27T02:02:12.812Z,8.40
2022-10-27T02:05:04.672Z,10.63
2022-10-27T02:07:53.970Z,9.57
2022-10-27T02:10:48.429Z,9.48
2022-10-27T02:13:15.153Z,8.77
2022-10-27T02:15:49.863Z,7.20
2022-10-27T02:18:20.565Z,7.90
2022-10-27T02:20:51.742Z,6.90
2022-10-27T02:23:20.515Z,7.10
2022-10-27T02:26:02.693Z,7.70
2022-10-27T02:28:48.069Z,7.65
2022-10-27T02:31:17.923Z,9.02
2022-10-27T02:33:45.355Z,8.40
2022-10-27T02:36:11.947Z,8.38
2022-10-27T02:38:38.990Z,7.13
2022-10-27T02:41:05.735Z,7.28
2022-10-27T02:43:32.883Z,6.45
2022-10-27T02:45:59.403Z,6.57
2022-10-27T02:48:26.416Z,7.40
2022-10-27T02:50:53.401Z,9.32
2022-10-27T02:53:20.360Z,9.65
2022-10-27T02:55:46.901Z,10.38
2022-10-27T02:58:13.891Z,10.93
2022-10-27T03:00:40.900Z,10.13
2022-10-27T03:03:07.543Z,10.82
2022-10-27T03:05:34.553Z,9.23
2022-10-27T03:08:01.110Z,8.63
2022-10-27T03:10:28.168Z,9.45
2022-10-27T03:12:54.838Z,9.63
2022-10-27T03:15:21.862Z,9.98
2022-10-27T03:17:49.080Z,10.60
2022-10-27T03:20:16.815Z,10.02
2022-10-27T03:22:43.909Z,9.73
2022-10-27T03:25:12.114Z,9.45
2022-10-27T03:27:44.391Z,8.85
2022-10-27T03:30:14.233Z,8.15
2022-10-27T03:32:44.738Z,7.72
2022-10-27T03:35:11.829Z,7.63
2022-10-27T03:37:38.762Z,9.48
2022-10-27T03:40:06.431Z,8.52
2022-10-27T03:42:32.958Z,8.80
2022-10-27T03:44:59.921Z,9.13
2022-10-27T03:47:26.874Z,8.25
2022-10-27T03:49:53.421Z,8.55
2022-10-27T03:52:22.174Z,7.20
2022-10-27T03:54:49.196Z,7.35
2022-10-27T03:57:15.741Z,8.85
2022-10-27T03:59:42.684Z,7.85
2022-10-27T04:02:09.309Z,7.95
2022-10-27T04:04:36.332Z,8.18
2022-10-27T04:07:03.577Z,7.95
2022-10-27T04:09:30.185Z,7.45
2022-10-27T04:11:57.196Z,6.93
2022-10-27T04:14:23.849Z,6.97
2022-10-27T04:16:51.737Z,7.70
2022-10-27T04:19:19.352Z,6.63
2022-10-27T04:21:47.318Z,7.07
2022-10-27T04:24:14.810Z,6.95
2022-10-27T04:26:42.651Z,8.88
2022-10-27T04:29:09.629Z,8.75
2022-10-27T04:31:36.835Z,8.90
2022-10-27T04:34:03.775Z,8.60
2022-10-27T04:36:30.704Z,8.23
2022-10-27T04:38:57.653Z,8.50
2022-10-27T04:41:24.179Z,8.70
2022-10-27T04:46:23.032Z,7.47
2022-10-27T04:48:50.006Z,7.43
2022-10-27T04:51:19.376Z,6.68
2022-10-27T04:53:49.527Z,7.07
2022-10-27T04:56:16.776Z,6.13
2022-10-27T04:58:44.222Z,6.30
2022-10-27T05:01:13.695Z,7.00
2022-10-27T05:03:40.814Z,7.28
2022-10-27T05:06:09.017Z,7.30
2022-10-27T05:08:35.558Z,8.60
2022-10-27T05:11:02.573Z,8.63
2022-10-27T05:13:29.109Z,9.32
2022-10-27T05:16:03.554Z,8.40
2022-10-27T05:18:30.576Z,8.30
2022-10-27T05:20:57.781Z,8.90
2022-10-27T05:23:24.952Z,8.90
2022-10-27T05:25:55.859Z,9.73
2022-10-27T05:28:23.814Z,9.07
2022-10-27T05:30:50.539Z,8.23
2022-10-27T05:33:17.638Z,9.38
2022-10-27T05:35:45.689Z,8.77
2022-10-27T05:38:12.574Z,10.25
2022-10-27T05:40:39.215Z,7.97
2022-10-27T05:43:05.755Z,7.93
2022-10-27T05:45:32.817Z,8.57
2022-10-27T05:48:04.485Z,7.85
2022-10-27T05:50:31.365Z,8.57
2022-10-27T05:52:58.093Z,8.40
2022-10-27T05:55:25.060Z,8.68
2022-10-27T05:58:02.933Z,9.55
2022-10-27T06:00:32.246Z,9.65
2022-10-27T06:03:00.710Z,9.23
2022-10-27T06:05:28.872Z,8.70
2022-10-27T06:07:56.054Z,8.32
2022-10-27T06:10:22.726Z,8.70
2022-10-27T06:12:49.337Z,9.50
2022-10-27T06:15:16.194Z,9.95
2022-10-27T06:17:43.161Z,9.27
2022-10-27T06:20:10.043Z,9.65
2022-10-27T06:22:36.628Z,9.90
2022-10-27T06:25:03.212Z,8.30
2022-10-27T06:27:31.538Z,9.75
2022-10-27T06:29:58.469Z,8.88
2022-10-27T06:34:57.353Z,8.10
2022-10-27T06:37:23.978Z,8.80
2022-10-27T06:39:50.991Z,9.35
2022-10-27T06:42:17.520Z,9.65
2022-10-27T06:44:44.506Z,9.40
2022-10-27T06:47:11.105Z,9.05
2022-10-27T06:49:38.708Z,8.00
2022-10-27T06:52:05.342Z,8.65
2022-10-27T06:54:32.044Z,8.45
2022-10-27T06:56:58.678Z,8.05
2022-10-27T06:59:25.632Z,8.85
2022-10-27T07:01:52.234Z,9.15
2022-10-27T07:04:18.848Z,9.02
2022-10-27T07:06:45.399Z,8.75
2022-10-27T07:09:11.943Z,8.45
2022-10-27T07:11:38.616Z,8.38
2022-10-27T07:14:05.174Z,8.10
2022-10-27T07:16:34.821Z,8.45
2022-10-27T07:19:02.547Z,9.80
2022-10-27T07:21:29.959Z,10.23
2022-10-27T07:23:56.529Z,10.32
2022-10-27T07:26:23.491Z,10.05
2022-10-27T07:28:50.499Z,10.50
2022-10-27T07:31:17.583Z,12.57
2022-10-27T07:33:44.142Z,13.27
2022-10-27T07:36:11.021Z,15.48
2022-10-27T07:38:39.318Z,16.27
2022-10-27T07:41:06.573Z,16.75
2022-10-27T07:43:33.203Z,16.52
2022-10-27T07:45:59.777Z,15.35
2022-10-27T07:48:26.405Z,15.38
2022-10-27T07:50:59.216Z,12.77
2022-10-27T07:53:26.212Z,12.98
2022-10-27T07:55:53.279Z,12.57
2022-10-27T07:58:20.238Z,10.48
2022-10-27T08:00:48.452Z,13.48
2022-10-27T08:03:21.431Z,12.35
2022-10-27T08:05:49.069Z,10.27
2022-10-27T08:08:15.987Z,9.45
2022-10-27T08:10:43.470Z,9.05
2022-10-27T08:13:10.834Z,8.90
2022-10-27T08:15:40.771Z,8.30
2022-10-27T08:18:09.267Z,8.32
2022-10-27T08:20:42.545Z,8.80
2022-10-27T08:23:14.963Z,7.63
2022-10-27T08:25:42.330Z,7.38
2022-10-27T08:28:11.292Z,7.38
2022-10-27T08:30:42.209Z,8.20
2022-10-27T08:33:16.497Z,7.20
2022-10-27T08:35:43.109Z,7.18
2022-10-27T08:38:14.975Z,8.13
2022-10-27T08:41:07.395Z,6.95
2022-10-27T08:43:52.907Z,7.07
2022-10-27T08:46:39.037Z,6.65
2022-10-27T08:49:11.618Z,6.40
2022-10-27T08:51:40.491Z,5.55
2022-10-27T08:54:07.824Z,6.00
2022-10-27T08:56:39.973Z,6.25
2022-10-27T08:59:15.042Z,6.45
2022-10-27T09:01:53.291Z,6.22
2022-10-27T09:04:44.697Z,6.45
2022-10-27T09:07:36.646Z,5.32
2022-10-27T09:10:14.807Z,5.72
2022-10-27T09:13:15.126Z,4.85
2022-10-27T09:15:41.669Z,4.57
2022-10-27T09:18:33.990Z,4.90
2022-10-27T09:21:04.662Z,6.20
2022-10-27T09:23:41.494Z,5.97
2022-10-27T09:26:08.585Z,5.20
2022-10-27T09:28:43.513Z,5.07
2022-10-27T09:31:40.560Z,5.03
2022-10-27T09:34:22.211Z,5.13
2022-10-27T09:36:49.335Z,4.30
2022-10-27T09:41:49.038Z,4.15
2022-10-27T09:44:26.595Z,4.53
2022-10-27T09:46:55.507Z,4.07
2022-10-27T09:49:28.043Z,4.63
2022-10-27T09:52:24.482Z,3.85
2022-10-27T09:54:55.511Z,3.50
2022-10-27T09:57:29.469Z,4.07
2022-10-27T09:59:59.343Z,3.58
2022-10-27T10:02:31.451Z,3.10
2022-10-27T10:05:00.298Z,3.20
2022-10-27T10:07:38.785Z,3.75
2022-10-27T10:10:30.349Z,3.45
2022-10-27T10:13:03.295Z,3.22
2022-10-27T10:15:32.977Z,4.35
2022-10-27T10:18:02.570Z,3.10
2022-10-27T10:20:39.709Z,3.55
2022-10-27T10:23:24.848Z,3.42
2022-10-27T10:25:54.917Z,3.38
2022-10-27T10:28:39.175Z,3.55
2022-10-27T10:31:09.059Z,3.20
2022-10-27T10:33:39.570Z,2.85
2022-10-27T10:36:25.111Z,3.67
2022-10-27T10:38:55.350Z,3.25
2022-10-27T10:41:23.370Z,2.60
2022-10-27T10:44:13.385Z,2.60
2022-10-27T10:46:41.863Z,2.58
2022-10-27T10:49:22.118Z,2.55
2022-10-27T10:51:55.279Z,2.55
2022-10-27T10:54:36.782Z,2.33
2022-10-27T10:57:04.378Z,2.30
2022-10-27T10:59:33.631Z,2.60
2022-10-27T11:02:28.050Z,2.22
2022-10-27T11:04:57.899Z,2.38
2022-10-27T11:07:30.475Z,2.15
2022-10-27T11:10:23.397Z,2.50
2022-10-27T11:13:00.543Z,2.78
2022-10-27T11:16:00.611Z,2.35
2022-10-27T11:18:31.259Z,2.38
2022-10-27T11:21:16.070Z,2.20
2022-10-27T11:23:49.944Z,2.35
2022-10-27T11:26:23.074Z,2.40
2022-10-27T11:29:35.128Z,2.05
2022-10-27T11:32:09.792Z,2.13
2022-10-27T11:34:43.686Z,2.00
2022-10-27T11:37:32.834Z,1.92
2022-10-27T11:40:39.287Z,1.88
2022-10-27T11:43:24.907Z,2.20
2022-10-27T11:46:08.848Z,2.10
2022-10-27T11:48:40.299Z,2.00
2022-10-27T11:51:09.188Z,1.67
2022-10-27T11:53:40.164Z,1.85
2022-10-27T11:56:33.347Z,2.60
2022-10-27T11:59:14.096Z,1.92
2022-10-27T12:02:06.170Z,1.88
2022-10-27T12:04:55.853Z,2.15
2022-10-27T12:07:39.699Z,1.70
2022-10-27T12:10:34.748Z,1.95
2022-10-27T12:13:22.642Z,1.50
2022-10-27T12:16:30.104Z,1.77
2022-10-27T12:19:03.571Z,1.80
2022-10-27T12:21:44.057Z,2.08
2022-10-27T12:24:21.862Z,2.28
2022-10-27T12:26:59.507Z,2.13
2022-10-27T12:29:34.465Z,2.00
2022-10-27T12:32:08.145Z,1.88
2022-10-27T12:34:41.999Z,1.83
2022-10-27T12:37:30.134Z,1.95
2022-10-27T12:40:29.972Z,2.13
2022-10-27T12:43:15.734Z,2.05
2022-10-27T12:46:11.011Z,2.20
2022-10-27T12:49:17.143Z,2.40
2022-10-27T12:52:03.947Z,2.13
2022-10-27T12:55:05.063Z,2.28
2022-10-27T12:57:58.186Z,2.35
2022-10-27T13:03:06.358Z,2.20
2022-10-27T13:05:53.964Z,2.30
2022-10-27T13:11:43.919Z,2.50
2022-10-27T13:14:25.469Z,3.10
2022-10-27T13:17:27.749Z,2.70
2022-10-27T13:20:10.576Z,3.00
2022-10-27T13:22:48.648Z,2.80
2022-10-27T13:25:44.787Z,2.75
2022-10-27T13:28:22.873Z,2.63
2022-10-27T13:31:03.699Z,2.88
2022-10-27T13:33:35.797Z,3.25
2022-10-27T13:36:28.906Z,3.15
2022-10-27T13:39:14.197Z,3.95
2022-10-27T13:42:07.050Z,3.42
2022-10-27T13:44:38.674Z,3.25
2022-10-27T13:47:05.715Z,3.50
2022-10-27T13:49:41.542Z,4.45
2022-10-27T13:52:11.399Z,4.10
2022-10-27T13:54:54.210Z,3.63
2022-10-27T13:57:59.377Z,3.70
2022-10-27T14:00:50.219Z,3.88
2022-10-27T14:03:28.174Z,4.03
2022-10-27T14:05:55.361Z,3.72
2022-10-27T14:08:31.530Z,3.25
2022-10-27T14:11:02.279Z,3.45
2022-10-27T14:13:43.879Z,3.50
2022-10-27T14:16:30.795Z,3.38
2022-10-27T14:19:28.777Z,3.05
2022-10-27T14:21:57.013Z,2.88
2022-10-27T14:24:43.312Z,2.80
2022-10-27T14:27:17.215Z,2.22
2022-10-27T14:29:44.193Z,2.45
2022-10-27T14:32:23.256Z,3.08
2022-10-27T14:34:50.612Z,2.47
2022-10-27T14:37:31.690Z,2.55
2022-10-27T14:40:01.935Z,2.25
2022-10-27T14:42:34.105Z,2.22
2022-10-27T14:45:11.056Z,2.00
2022-10-27T14:47:42.731Z,2.15
2022-10-27T14:50:38.941Z,2.17
2022-10-27T14:53:05.751Z,1.70
2022-10-27T14:55:38.027Z,1.80
2022-10-27T14:58:05.726Z,1.75
2022-10-27T15:00:37.580Z,1.73
2022-10-27T15:03:06.591Z,1.90
2022-10-27T15:05:36.927Z,1.55
2022-10-27T15:08:06.935Z,1.83
2022-10-27T15:10:36.551Z,1.70
2022-10-27T15:13:04.839Z,1.70
2022-10-27T15:15:41.911Z,1.67
2022-10-27T15:18:30.928Z,1.77
2022-10-27T15:20:59.123Z,1.80
2022-10-27T15:23:26.525Z,2.00
2022-10-27T15:25:58.426Z,1.90
2022-10-27T15:28:29.946Z,1.60
2022-10-27T15:30:57.035Z,2.00
2022-10-27T15:33:26.574Z,1.50
2022-10-27T15:35:57.555Z,1.63
2022-10-27T15:38:26.387Z,2.08
2022-10-27T15:41:06.536Z,1.88
2022-10-27T15:43:33.578Z,2.20
2022-10-27T15:46:30.062Z,2.25
2022-10-27T15:49:02.786Z,2.08
2022-10-27T15:51:50.549Z,2.10
2022-10-27T15:54:30.808Z,2.00
2022-10-27T15:56:58.387Z,2.30
2022-10-27T15:59:27.974Z,3.20
2022-10-27T16:02:01.469Z,2.92
2022-10-27T16:04:33.933Z,3.15
2022-10-27T16:07:13.225Z,2.35
2022-10-27T16:09:48.486Z,2.75
2022-10-27T16:12:17.933Z,3.00
2022-10-27T16:14:51.539Z,3.20
2022-10-27T16:17:22.570Z,3.88
2022-10-27T16:19:50.834Z,4.50
2022-10-27T16:22:19.355Z,4.47
2022-10-27T16:24:46.487Z,3.70
2022-10-27T16:27:20.422Z,12.98
2022-10-27T16:29:55.336Z,9.50
2022-10-27T16:32:22.528Z,6.10
2022-10-27T16:34:49.074Z,4.78
2022-10-27T16:37:21.027Z,3.78
2022-10-27T16:39:47.966Z,4.05
2022-10-27T16:42:14.838Z,3.35
2022-10-27T16:44:41.871Z,3.30
2022-10-27T16:47:12.304Z,2.85
2022-10-27T16:49:39.460Z,3.20
2022-10-27T16:52:07.667Z,3.38
2022-10-27T16:54:35.618Z,3.00
2022-10-27T16:57:02.793Z,3.00
2022-10-27T16:59:29.537Z,2.80
2022-10-27T17:01:56.973Z,3.78
2022-10-27T17:04:23.955Z,3.33
2022-10-27T17:06:51.094Z,3.80
2022-10-27T17:09:18.513Z,3.40
2022-10-27T17:11:48.286Z,3.42
2022-10-27T17:14:15.316Z,3.22
2022-10-27T17:16:41.898Z,3.50
2022-10-27T17:19:09.056Z,2.90
2022-10-27T17:21:36.273Z,4.07
2022-10-27T17:24:03.325Z,4.03
2022-10-27T17:26:33.010Z,4.65
2022-10-27T17:28:59.741Z,4.35
2022-10-27T17:31:27.266Z,5.63
2022-10-27T17:33:57.550Z,5.18
2022-10-27T17:36:25.993Z,4.85
2022-10-27T17:38:52.903Z,4.88
2022-10-27T17:41:19.705Z,5.00
2022-10-27T17:43:47.203Z,5.25
2022-10-27T17:46:16.303Z,4.80
2022-10-27T17:48:48.514Z,4.82
2022-10-27T17:51:17.734Z,4.97
2022-10-27T17:53:45.990Z,4.95
2022-10-27T17:56:15.763Z,4.18
2022-10-27T17:58:43.337Z,4.90
2022-10-27T18:01:13.114Z,4.50
2022-10-27T18:03:41.045Z,4.38
2022-10-27T18:06:10.855Z,3.25
2022-10-27T18:08:38.101Z,4.05
2022-10-27T18:11:20.890Z,3.92
2022-10-27T18:13:49.366Z,3.72
2022-10-27T18:16:25.208Z,4.28
2022-10-27T18:19:00.666Z,4.20
2022-10-27T18:21:30.175Z,3.95
2022-10-27T18:23:58.905Z,3.92
2022-10-27T18:26:27.778Z,3.85
2022-10-27T18:28:54.487Z,3.95
2022-10-27T18:31:24.167Z,4.07
2022-10-27T18:33:50.928Z,3.88
2022-10-27T18:36:20.729Z,3.90
2022-10-27T18:38:47.987Z,3.65
2022-10-27T18:41:16.371Z,3.85
2022-10-27T18:43:48.082Z,3.17
2022-10-27T18:46:16.063Z,3.13
2022-10-27T18:48:43.668Z,3.60
2022-10-27T18:51:14.713Z,4.00
2022-10-27T18:53:41.867Z,4.10
2022-10-27T18:56:10.826Z,4.20
2022-10-27T18:58:37.804Z,4.15
2022-10-27T19:01:15.622Z,4.07
2022-10-27T19:03:42.488Z,3.80
2022-10-27T19:06:11.300Z,3.67
2022-10-27T19:08:38.490Z,3.05
2022-10-27T19:11:08.490Z,3.85
2022-10-27T19:13:35.452Z,3.85
2022-10-27T19:16:04.129Z,3.53
2022-10-27T19:18:31.949Z,4.43
2022-10-27T19:21:00.320Z,3.97
2022-10-27T19:23:28.068Z,3.70
2022-10-27T19:26:02.266Z,4.07
2022-10-27T19:28:31.182Z,3.67
2022-10-27T19:30:58.163Z,3.67
2022-10-27T19:33:24.867Z,3.00
2022-10-27T19:35:51.546Z,3.20
2022-10-27T19:38:18.760Z,3.22
2022-10-27T19:40:45.864Z,4.00
2022-10-27T19:43:12.922Z,4.00
2022-10-27T19:45:45.734Z,4.13
2022-10-27T19:48:12.856Z,4.68
2022-10-27T19:50:39.408Z,4.85
2022-10-27T19:53:06.395Z,6.00
2022-10-27T19:55:33.073Z,14.75
2022-10-27T19:58:00.092Z,14.38
2022-10-27T20:00:26.742Z,10.48
2022-10-27T20:02:57.434Z,10.25
2022-10-27T20:05:24.566Z,7.22
2022-10-27T20:07:51.950Z,5.78
2022-10-27T20:10:20.819Z,5.03
2022-10-27T20:12:48.303Z,5.90
2022-10-27T20:15:16.072Z,5.85
2022-10-27T20:17:42.738Z,5.50
2022-10-27T20:20:09.909Z,5.43
2022-10-27T20:22:36.478Z,4.35
2022-10-27T20:25:03.490Z,4.63
2022-10-27T20:27:30.578Z,4.65
2022-10-27T20:29:57.138Z,4.43
2022-10-27T20:32:25.140Z,4.15
2022-10-27T20:34:51.839Z,4.45
2022-10-27T20:37:18.809Z,3.42
2022-10-27T20:39:45.805Z,4.00
2022-10-27T20:42:12.910Z,4.10
2022-10-27T20:44:39.874Z,3.97
2022-10-27T20:47:06.426Z,7.13
2022-10-27T20:49:33.372Z,21.42
2022-10-27T20:51:59.925Z,32.88
2022-10-27T20:54:26.933Z,22.55
2022-10-27T20:56:54.564Z,14.10
2022-10-27T20:59:23.921Z,8.80
2022-10-27T21:01:54.507Z,6.75
2022-10-27T21:04:22.461Z,5.13
2022-10-27T21:06:50.683Z,4.47
2022-10-27T21:09:19.655Z,3.95
2022-10-27T21:11:47.263Z,3.60
2022-10-27T21:14:14.708Z,3.17
2022-10-27T21:16:41.864Z,3.47
2022-10-27T21:19:10.840Z,3.50
2022-10-27T21:21:39.040Z,3.70
2022-10-27T21:24:06.770Z,3.47
2022-10-27T21:26:34.248Z,3.97
2022-10-27T21:29:01.354Z,3.85
2022-10-27T21:31:30.827Z,3.90
2022-10-27T21:34:00.827Z,3.95
2022-10-27T21:36:27.391Z,3.30
2022-10-27T21:38:54.376Z,3.80
2022-10-27T21:41:23.054Z,3.72
2022-10-27T21:43:52.013Z,3.83
2022-10-27T21:46:21.570Z,3.63
2022-10-27T21:48:48.423Z,3.65
2022-10-27T21:51:16.097Z,3.83
2022-10-27T21:53:42.856Z,3.65
2022-10-27T21:56:12.404Z,3.40
2022-10-27T21:58:40.267Z,3.22
2022-10-27T22:01:13.727Z,3.65
2022-10-27T22:03:42.272Z,3.92
2022-10-27T22:06:18.710Z,4.20
2022-10-27T22:08:46.581Z,3.75
2022-10-27T22:11:20.124Z,4.13
2022-10-27T22:13:46.764Z,4.28
2022-10-27T22:16:18.106Z,3.67
2022-10-27T22:18:46.060Z,3.92
2022-10-27T22:21:15.714Z,3.78
2022-10-27T22:23:43.187Z,4.50
2022-10-27T22:26:16.221Z,3.90
2022-10-27T22:28:44.506Z,4.10
2022-10-27T22:31:16.645Z,4.03
2022-10-27T22:33:45.783Z,4.07
2022-10-27T22:36:14.074Z,4.22
2022-10-27T22:38:40.640Z,3.90
2022-10-27T22:41:12.933Z,3.65
2022-10-27T22:43:40.310Z,3.70
2022-10-27T22:46:08.471Z,3.85
2022-10-27T22:48:36.127Z,3.88
2022-10-27T22:51:11.602Z,3.78
2022-10-27T22:53:40.114Z,3.85
2022-10-27T22:56:16.532Z,3.97
2022-10-27T22:58:45.743Z,4.43
2022-10-27T23:01:15.944Z,4.28
2022-10-27T23:03:42.658Z,4.60
2022-10-27T23:06:09.716Z,4.78
2022-10-27T23:08:36.943Z,4.10
2022-10-27T23:11:06.494Z,4.60
2022-10-27T23:13:35.699Z,4.50
2022-10-27T23:16:05.301Z,4.18
2022-10-27T23:18:34.008Z,4.50
2022-10-27T23:21:02.116Z,4.78
2022-10-27T23:23:30.709Z,4.57
2022-10-27T23:25:58.328Z,4.60
2022-10-27T23:28:25.504Z,4.30
2022-10-27T23:30:52.828Z,4.68
2022-10-27T23:33:19.367Z,4.85
2022-10-27T23:35:56.857Z,4.82
2022-10-27T23:40:52.737Z,4.63
2022-10-27T23:43:20.130Z,4.68
2022-10-27T23:45:47.192Z,4.45
2022-10-27T23:48:14.896Z,4.07
2022-10-27T23:50:43.311Z,4.43
2022-10-27T23:53:10.612Z,5.20
2022-10-27T23:55:37.173Z,5.35
2022-10-27T23:58:04.328Z,5.35
